createdAt,value
2022-08-08T00:00:52.414Z,-69
2022-08-08T00:03:13.211Z,-69
2022-08-08T00:06:04.540Z,-68
2022-08-08T00:08:48.982Z,-69
2022-08-08T00:11:25.688Z,-68
2022-08-08T00:14:58.733Z,-69
2022-08-08T00:17:35.353Z,-69
2022-08-08T00:20:26.102Z,-68
2022-08-08T00:22:59.291Z,-70
2022-08-08T00:25:39.039Z,-69
2022-08-08T00:28:35.622Z,-69
2022-08-08T00:32:28.191Z,-68
2022-08-08T00:34:50.680Z,-70
2022-08-08T00:37:47.764Z,-70
2022-08-08T00:41:12.219Z,-69
2022-08-08T00:44:38.695Z,-69
2022-08-08T00:48:05.485Z,-69
2022-08-08T00:51:42.402Z,-70
2022-08-08T00:54:45.806Z,-69
2022-08-08T00:57:59.110Z,-69
2022-08-08T01:00:35.923Z,-69
2022-08-08T01:03:54.188Z,-69
2022-08-08T01:07:54.791Z,-69
2022-08-08T01:11:39.095Z,-68
2022-08-08T01:14:57.399Z,-69
2022-08-08T01:18:25.581Z,-68
2022-08-08T01:22:13.046Z,-68
2022-08-08T01:25:43.127Z,-69
2022-08-08T01:28:32.143Z,-68
2022-08-08T01:32:13.741Z,-68
2022-08-08T01:35:40.481Z,-68
2022-08-08T01:38:51.357Z,-68
2022-08-08T01:41:43.810Z,-69
2022-08-08T01:44:35.180Z,-68
2022-08-08T01:47:59.036Z,-69
2022-08-08T01:50:37.308Z,-69
2022-08-08T01:55:15.593Z,-68
2022-08-08T01:56:34.548Z,-69
2022-08-08T01:59:38.048Z,-69
2022-08-08T02:02:45.168Z,-70
2022-08-08T02:05:55.874Z,-69
2022-08-08T02:08:35.819Z,-69
2022-08-08T02:11:23.420Z,-69
2022-08-08T02:14:00.998Z,-69
2022-08-08T02:16:57.737Z,-69
2022-08-08T02:20:08.221Z,-69
2022-08-08T02:22:52.568Z,-69
2022-08-08T02:25:33.051Z,-70
2022-08-08T02:28:35.010Z,-70
2022-08-08T02:31:43.953Z,-68
2022-08-08T02:34:33.043Z,-69
2022-08-08T02:37:53.359Z,-68
2022-08-08T02:40:17.866Z,-71
2022-08-08T02:44:42.313Z,-69
2022-08-08T02:46:59.488Z,-70
2022-08-08T02:50:17.589Z,-69
2022-08-08T02:53:09.519Z,-69
2022-08-08T02:56:36.027Z,-69
2022-08-08T03:00:31.444Z,-70
2022-08-08T03:05:05.143Z,-71
2022-08-08T03:07:58.351Z,-67
2022-08-08T03:11:47.403Z,-67
2022-08-08T03:15:58.850Z,-69
2022-08-08T03:17:39.688Z,-71
2022-08-08T03:20:10.500Z,-68
2022-08-08T03:22:56.313Z,-68
2022-08-08T03:25:36.212Z,-70
2022-08-08T03:28:14.391Z,-69
2022-08-08T03:30:49.124Z,-69
2022-08-08T03:33:56.134Z,-69
2022-08-08T03:36:27.814Z,-69
2022-08-08T03:39:14.964Z,-68
2022-08-08T03:42:12.266Z,-68
2022-08-08T03:44:35.671Z,-69
2022-08-08T03:47:19.572Z,-68
2022-08-08T03:50:01.172Z,-68
2022-08-08T03:52:34.103Z,-69
2022-08-08T03:55:55.120Z,-68
2022-08-08T03:58:31.129Z,-69
2022-08-08T04:01:01.889Z,-69
2022-08-08T04:03:57.932Z,-69
2022-08-08T04:06:29.996Z,-68
2022-08-08T04:09:06.741Z,-68
2022-08-08T04:11:58.930Z,-67
2022-08-08T04:14:34.566Z,-68
2022-08-08T04:17:07.117Z,-69
2022-08-08T04:19:51.874Z,-69
2022-08-08T04:22:24.167Z,-68
2022-08-08T04:24:52.880Z,-68
2022-08-08T04:28:01.498Z,-70
2022-08-08T04:30:18.317Z,-69
2022-08-08T04:32:48.169Z,-69
2022-08-08T04:35:18.233Z,-68
2022-08-08T04:37:51.257Z,-68
2022-08-08T04:40:24.157Z,-68
2022-08-08T04:42:57.142Z,-68
2022-08-08T04:45:26.716Z,-67
2022-08-08T04:47:57.144Z,-69
2022-08-08T04:50:28.246Z,-71
2022-08-08T04:53:05.125Z,-69
2022-08-08T04:55:55.162Z,-70
2022-08-08T04:58:26.224Z,-68
2022-08-08T05:00:54.411Z,-67
2022-08-08T05:04:11.360Z,-71
2022-08-08T05:06:13.383Z,-68
2022-08-08T05:08:51.723Z,-70
2022-08-08T05:11:22.827Z,-68
2022-08-08T05:13:57.686Z,-68
2022-08-08T05:16:52.053Z,-67
2022-08-08T05:20:11.851Z,-67
2022-08-08T05:22:09.847Z,-68
2022-08-08T05:24:40.142Z,-69
2022-08-08T05:27:08.973Z,-68
2022-08-08T05:29:38.470Z,-68
2022-08-08T05:32:12.786Z,-69
2022-08-08T05:34:49.297Z,-68
2022-08-08T05:37:39.007Z,-68
2022-08-08T05:40:16.544Z,-68
2022-08-08T05:42:51.330Z,-68
2022-08-08T05:45:25.684Z,-70
2022-08-08T05:48:12.204Z,-67
2022-08-08T05:50:43.340Z,-69
2022-08-08T05:53:54.517Z,-68
2022-08-08T05:56:10.995Z,-69
2022-08-08T05:58:57.618Z,-69
2022-08-08T06:01:55.922Z,-69
2022-08-08T06:04:24.438Z,-68
2022-08-08T06:06:56.606Z,-68
2022-08-08T06:10:00.317Z,-68
2022-08-08T06:12:30.198Z,-68
2022-08-08T06:15:03.307Z,-70
2022-08-08T06:17:51.035Z,-70
2022-08-08T06:20:22.964Z,-70
2022-08-08T06:22:56.429Z,-70
2022-08-08T06:25:33.119Z,-69
2022-08-08T06:28:20.347Z,-69
2022-08-08T06:31:02.450Z,-68
2022-08-08T06:34:27.496Z,-68
2022-08-08T06:36:52.996Z,-68
2022-08-08T06:39:23.627Z,-68
2022-08-08T06:41:58.595Z,-68
2022-08-08T06:44:31.958Z,-68
2022-08-08T06:47:02.302Z,-67
2022-08-08T06:49:56.350Z,-68
2022-08-08T06:52:22.951Z,-67
2022-08-08T06:54:58.510Z,-67
2022-08-08T06:57:29.432Z,-66
2022-08-08T07:00:13.306Z,-67
2022-08-08T07:02:52.797Z,-67
2022-08-08T07:05:29.814Z,-68
2022-08-08T07:08:16.616Z,-68
2022-08-08T07:10:52.712Z,-67
2022-08-08T07:13:25.061Z,-67
2022-08-08T07:16:04.794Z,-66
2022-08-08T07:18:57.510Z,-67
2022-08-08T07:21:35.728Z,-67
2022-08-08T07:24:11.095Z,-66
2022-08-08T07:26:46.812Z,-66
2022-08-08T07:29:59.949Z,-66
2022-08-08T07:32:09.735Z,-68
2022-08-08T07:34:48.342Z,-69
2022-08-08T07:37:49.625Z,-68
2022-08-08T07:40:21.097Z,-67
2022-08-08T07:42:59.540Z,-66
2022-08-08T07:45:34.892Z,-70
2022-08-08T07:48:15.977Z,-68
2022-08-08T07:50:47.371Z,-68
2022-08-08T07:54:02.367Z,-68
2022-08-08T07:56:35.320Z,-67
2022-08-08T07:59:08.919Z,-65
2022-08-08T08:02:34.911Z,-65
2022-08-08T08:04:41.365Z,-65
2022-08-08T08:07:10.898Z,-67
2022-08-08T08:09:42.469Z,-67
2022-08-08T08:12:31.424Z,-66
2022-08-08T08:15:05.558Z,-66
2022-08-08T08:17:47.562Z,-67
2022-08-08T08:20:20.646Z,-67
2022-08-08T08:22:48.902Z,-66
2022-08-08T08:25:35.852Z,-68
2022-08-08T08:28:09.387Z,-67
2022-08-08T08:30:39.324Z,-67
2022-08-08T08:33:11.032Z,-66
2022-08-08T08:36:18.630Z,-66
2022-08-08T08:38:29.268Z,-67
2022-08-08T08:41:06.274Z,-67
2022-08-08T08:43:46.284Z,-67
2022-08-08T08:46:17.544Z,-68
2022-08-08T08:48:49.597Z,-66
2022-08-08T08:51:18.739Z,-66
2022-08-08T08:53:56.172Z,-67
2022-08-08T08:56:29.837Z,-67
2022-08-08T08:59:01.491Z,-69
2022-08-08T09:01:35.433Z,-67
2022-08-08T09:04:31.746Z,-68
2022-08-08T09:07:03.264Z,-68
2022-08-08T09:09:47.832Z,-68
2022-08-08T09:12:20.311Z,-67
2022-08-08T09:14:50.168Z,-67
2022-08-08T09:17:23.704Z,-68
2022-08-08T09:21:57.369Z,-69
2022-08-08T09:23:00.161Z,-67
2022-08-08T09:25:36.084Z,-66
2022-08-08T09:28:35.427Z,-67
2022-08-08T09:31:16.413Z,-66
2022-08-08T09:34:14.958Z,-67
2022-08-08T09:36:51.891Z,-67
2022-08-08T09:39:53.848Z,-67
2022-08-08T09:42:27.940Z,-67
2022-08-08T09:45:20.733Z,-68
2022-08-08T09:48:09.966Z,-67
2022-08-08T09:50:50.196Z,-66
2022-08-08T09:53:31.930Z,-66
2022-08-08T09:56:21.819Z,-68
2022-08-08T09:59:07.852Z,-67
2022-08-08T10:02:02.088Z,-67
2022-08-08T10:04:38.468Z,-66
2022-08-08T10:07:17.678Z,-66
2022-08-08T10:09:59.461Z,-67
2022-08-08T10:12:37.902Z,-67
2022-08-08T10:15:20.938Z,-66
2022-08-08T10:18:05.783Z,-67
2022-08-08T10:20:51.484Z,-67
2022-08-08T10:23:44.236Z,-67
2022-08-08T10:26:29.838Z,-67
2022-08-08T10:29:05.624Z,-67
2022-08-08T10:31:53.306Z,-68
2022-08-08T10:34:28.795Z,-66
2022-08-08T10:36:59.787Z,-67
2022-08-08T10:39:31.375Z,-68
2022-08-08T10:42:16.619Z,-68
2022-08-08T10:44:46.082Z,-68
2022-08-08T10:47:21.079Z,-68
2022-08-08T10:50:00.467Z,-67
2022-08-08T10:52:34.265Z,-66
2022-08-08T10:55:06.803Z,-67
2022-08-08T10:57:50.514Z,-66
2022-08-08T11:00:26.976Z,-66
2022-08-08T11:02:56.695Z,-68
2022-08-08T11:05:38.469Z,-67
2022-08-08T11:08:37.756Z,-66
2022-08-08T11:11:07.772Z,-66
2022-08-08T11:13:41.086Z,-66
2022-08-08T11:16:31.960Z,-67
2022-08-08T11:19:02.917Z,-67
2022-08-08T11:21:37.888Z,-67
2022-08-08T11:24:10.003Z,-67
2022-08-08T11:26:56.968Z,-67
2022-08-08T11:29:41.330Z,-68
2022-08-08T11:32:22.070Z,-67
2022-08-08T11:35:27.370Z,-67
2022-08-08T11:38:36.801Z,-68
2022-08-08T11:40:51.527Z,-67
2022-08-08T11:43:24.441Z,-67
2022-08-08T11:46:09.544Z,-66
2022-08-08T11:48:44.827Z,-66
2022-08-08T11:51:38.333Z,-66
2022-08-08T11:54:26.937Z,-67
2022-08-08T11:57:14.606Z,-68
2022-08-08T12:00:00.498Z,-67
2022-08-08T12:02:33.942Z,-68
2022-08-08T12:05:12.454Z,-66
2022-08-08T12:07:51.550Z,-66
2022-08-08T12:10:24.849Z,-66
2022-08-08T12:13:04.130Z,-67
2022-08-08T12:15:42.367Z,-67
2022-08-08T12:18:21.534Z,-68
2022-08-08T12:20:54.735Z,-67
2022-08-08T12:23:43.078Z,-67
2022-08-08T12:26:28.425Z,-67
2022-08-08T12:29:21.268Z,-67
2022-08-08T12:32:02.989Z,-66
2022-08-08T12:34:48.688Z,-67
2022-08-08T12:37:22.677Z,-67
2022-08-08T12:40:01.070Z,-67
2022-08-08T12:42:33.236Z,-66
2022-08-08T12:45:53.528Z,-67
2022-08-08T12:48:09.608Z,-67
2022-08-08T12:50:49.281Z,-68
2022-08-08T12:53:24.756Z,-68
2022-08-08T12:56:18.833Z,-68
2022-08-08T12:58:54.593Z,-64
2022-08-08T13:01:36.779Z,-68
2022-08-08T13:04:19.255Z,-67
2022-08-08T13:07:02.907Z,-66
2022-08-08T13:09:43.116Z,-69
2022-08-08T13:12:30.329Z,-69
2022-08-08T13:15:04.237Z,-66
2022-08-08T13:18:07.790Z,-68
2022-08-08T13:20:25.951Z,-68
2022-08-08T13:23:30.981Z,-66
2022-08-08T13:25:50.176Z,-66
2022-08-08T13:28:32.145Z,-67
2022-08-08T13:31:04.098Z,-67
2022-08-08T13:33:41.885Z,-66
2022-08-08T13:36:12.314Z,-66
2022-08-08T13:38:42.525Z,-65
2022-08-08T13:41:16.732Z,-65
2022-08-08T13:43:47.372Z,-66
2022-08-08T13:46:28.708Z,-66
2022-08-08T13:49:12.122Z,-68
2022-08-08T13:51:58.130Z,-67
2022-08-08T13:54:31.613Z,-64
2022-08-08T13:57:03.548Z,-65
2022-08-08T13:59:40.828Z,-64
2022-08-08T14:02:21.402Z,-64
2022-08-08T14:05:04.879Z,-64
2022-08-08T14:07:42.369Z,-63
2022-08-08T14:10:17.116Z,-62
2022-08-08T14:12:47.164Z,-65
2022-08-08T14:15:31.603Z,-62
2022-08-08T14:18:37.050Z,-63
2022-08-08T14:21:04.125Z,-68
2022-08-08T14:24:07.452Z,-68
2022-08-08T14:26:33.272Z,-69
2022-08-08T14:29:05.985Z,-71
2022-08-08T14:32:09.344Z,-70
2022-08-08T14:34:39.408Z,-64
2022-08-08T14:37:13.273Z,-64
2022-08-08T14:39:49.772Z,-65
2022-08-08T14:42:32.575Z,-65
2022-08-08T14:45:05.953Z,-68
2022-08-08T14:47:52.696Z,-69
2022-08-08T14:50:38.110Z,-68
2022-08-08T14:53:13.714Z,-67
2022-08-08T14:55:43.662Z,-68
2022-08-08T14:58:16.853Z,-68
2022-08-08T15:00:49.953Z,-64
2022-08-08T15:03:18.597Z,-63
2022-08-08T15:05:54.420Z,-64
2022-08-08T15:08:35.542Z,-63
2022-08-08T15:11:11.030Z,-64
2022-08-08T15:14:00.959Z,-63
2022-08-08T15:16:34.084Z,-65
2022-08-08T15:19:04.574Z,-65
2022-08-08T15:21:34.390Z,-63
2022-08-08T15:24:13.744Z,-62
2022-08-08T15:26:44.078Z,-66
2022-08-08T15:29:22.370Z,-65
2022-08-08T15:32:17.749Z,-65
2022-08-08T15:34:40.632Z,-64
2022-08-08T15:37:13.019Z,-65
2022-08-08T15:39:41.443Z,-64
2022-08-08T15:42:17.885Z,-67
2022-08-08T15:44:58.519Z,-67
2022-08-08T15:47:26.789Z,-64
2022-08-08T15:49:55.251Z,-63
2022-08-08T15:52:25.708Z,-63
2022-08-08T15:54:55.152Z,-63
2022-08-08T15:57:24.245Z,-66
2022-08-08T16:00:06.745Z,-63
2022-08-08T16:02:50.578Z,-63
2022-08-08T16:05:21.463Z,-64
2022-08-08T16:07:54.125Z,-64
2022-08-08T16:13:11.735Z,-63
2022-08-08T16:13:28.419Z,-64
2022-08-08T16:16:09.457Z,-64
2022-08-08T16:18:52.866Z,-64
2022-08-08T16:21:27.547Z,-64
2022-08-08T16:23:59.448Z,-64
2022-08-08T16:26:34.440Z,-63
2022-08-08T16:29:07.720Z,-64
2022-08-08T16:31:40.361Z,-63
2022-08-08T16:34:09.059Z,-65
2022-08-08T16:36:37.985Z,-64
2022-08-08T16:39:09.786Z,-67
2022-08-08T16:41:51.183Z,-63
2022-08-08T16:44:27.853Z,-64
2022-08-08T16:47:17.762Z,-63
2022-08-08T16:49:50.035Z,-63
2022-08-08T16:55:07.106Z,-63
2022-08-08T16:55:54.481Z,-64
2022-08-08T16:58:15.359Z,-64
2022-08-08T17:00:48.861Z,-63
2022-08-08T17:03:24.240Z,-63
2022-08-08T17:05:56.374Z,-64
2022-08-08T17:08:24.549Z,-64
2022-08-08T17:10:58.757Z,-63
2022-08-08T17:13:49.861Z,-64
2022-08-08T17:16:22.304Z,-63
2022-08-08T17:18:52.654Z,-64
2022-08-08T17:21:21.425Z,-64
2022-08-08T17:24:00.903Z,-63
2022-08-08T17:26:33.259Z,-63
2022-08-08T17:29:03.992Z,-64
2022-08-08T17:31:44.860Z,-63
2022-08-08T17:34:53.765Z,-64
2022-08-08T17:37:09.074Z,-63
2022-08-08T17:40:03.703Z,-63
2022-08-08T17:42:27.682Z,-64
2022-08-08T17:44:58.049Z,-63
2022-08-08T17:47:28.261Z,-64
2022-08-08T17:50:08.469Z,-63
2022-08-08T17:52:39.059Z,-63
2022-08-08T17:56:03.870Z,-64
2022-08-08T17:58:02.248Z,-63
2022-08-08T18:00:31.938Z,-64
2022-08-08T18:03:08.436Z,-63
2022-08-08T18:05:49.836Z,-63
2022-08-08T18:08:25.227Z,-63
2022-08-08T18:11:11.806Z,-63
2022-08-08T18:13:45.778Z,-62
2022-08-08T18:16:16.859Z,-62
2022-08-08T18:18:52.465Z,-63
2022-08-08T18:21:59.071Z,-63
2022-08-08T18:24:19.482Z,-63
2022-08-08T18:26:55.385Z,-62
2022-08-08T18:29:32.953Z,-61
2022-08-08T18:32:05.487Z,-61
2022-08-08T18:34:37.778Z,-62
2022-08-08T18:37:08.267Z,-64
2022-08-08T18:39:41.894Z,-63
2022-08-08T18:42:16.096Z,-64
2022-08-08T18:44:54.722Z,-65
2022-08-08T18:47:25.275Z,-62
2022-08-08T18:49:58.968Z,-64
2022-08-08T18:52:30.093Z,-64
2022-08-08T18:55:09.015Z,-65
2022-08-08T18:57:43.425Z,-61
2022-08-08T19:00:20.278Z,-62
2022-08-08T19:02:56.984Z,-65
2022-08-08T19:05:34.784Z,-64
2022-08-08T19:08:25.497Z,-66
2022-08-08T19:11:01.833Z,-64
2022-08-08T19:13:52.750Z,-62
2022-08-08T19:16:23.483Z,-64
2022-08-08T19:19:02.041Z,-62
2022-08-08T19:21:33.620Z,-63
2022-08-08T19:24:39.384Z,-62
2022-08-08T19:27:07.667Z,-62
2022-08-08T19:29:40.747Z,-62
2022-08-08T19:32:19.534Z,-63
2022-08-08T19:34:51.771Z,-62
2022-08-08T19:37:43.920Z,-63
2022-08-08T19:40:14.690Z,-63
2022-08-08T19:42:45.814Z,-62
2022-08-08T19:45:59.915Z,-62
2022-08-08T19:48:28.245Z,-70
2022-08-08T19:50:54.644Z,-63
2022-08-08T19:53:51.883Z,-64
2022-08-08T19:56:12.073Z,-62
2022-08-08T19:58:41.889Z,-64
2022-08-08T20:01:18.906Z,-63
2022-08-08T20:04:00.386Z,-64
2022-08-08T20:06:30.744Z,-63
2022-08-08T20:08:59.784Z,-64
2022-08-08T20:11:32.621Z,-63
2022-08-08T20:14:12.339Z,-64
2022-08-08T20:16:48.904Z,-64
2022-08-08T20:19:22.719Z,-62
2022-08-08T20:21:51.012Z,-63
2022-08-08T20:24:19.300Z,-62
2022-08-08T20:26:49.272Z,-64
2022-08-08T20:29:18.202Z,-62
2022-08-08T20:32:07.243Z,-63
2022-08-08T20:34:36.823Z,-63
2022-08-08T20:37:15.728Z,-63
2022-08-08T20:39:51.619Z,-62
2022-08-08T20:42:28.645Z,-62
2022-08-08T20:44:59.561Z,-62
2022-08-08T20:47:36.622Z,-62
2022-08-08T20:50:09.937Z,-62
2022-08-08T20:52:39.384Z,-63
2022-08-08T20:55:22.563Z,-62
2022-08-08T20:57:53.865Z,-62
2022-08-08T21:00:26.450Z,-62
2022-08-08T21:02:54.715Z,-63
2022-08-08T21:05:24.422Z,-62
2022-08-08T21:08:37.211Z,-62
2022-08-08T21:10:50.047Z,-62
2022-08-08T21:13:18.245Z,-63
2022-08-08T21:16:05.850Z,-63
2022-08-08T21:18:34.711Z,-61
2022-08-08T21:21:19.594Z,-63
2022-08-08T21:24:02.480Z,-62
2022-08-08T21:26:33.330Z,-62
2022-08-08T21:29:02.683Z,-63
2022-08-08T21:31:58.652Z,-62
2022-08-08T21:34:19.623Z,-63
2022-08-08T21:36:51.157Z,-62
2022-08-08T21:39:21.893Z,-62
2022-08-08T21:41:53.837Z,-62
2022-08-08T21:44:27.609Z,-62
2022-08-08T21:48:08.148Z,-63
2022-08-08T21:49:44.171Z,-63
2022-08-08T21:54:33.262Z,-63
2022-08-08T21:55:04.237Z,-62
2022-08-08T21:58:04.215Z,-63
2022-08-08T22:00:40.651Z,-62
2022-08-08T22:03:11.152Z,-61
2022-08-08T22:05:55.984Z,-63
2022-08-08T22:08:27.836Z,-62
2022-08-08T22:11:05.647Z,-63
2022-08-08T22:13:54.226Z,-62
2022-08-08T22:16:24.577Z,-62
2022-08-08T22:18:54.029Z,-64
2022-08-08T22:21:22.305Z,-62
2022-08-08T22:23:53.554Z,-63
2022-08-08T22:26:29.244Z,-62
2022-08-08T22:29:13.855Z,-62
2022-08-08T22:31:58.424Z,-62
2022-08-08T22:34:31.482Z,-63
2022-08-08T22:36:59.770Z,-62
2022-08-08T22:39:39.526Z,-64
2022-08-08T22:42:14.633Z,-62
2022-08-08T22:44:55.402Z,-62
2022-08-08T22:47:23.551Z,-62
2022-08-08T22:50:02.795Z,-62
2022-08-08T22:52:33.634Z,-62
2022-08-08T22:55:06.678Z,-62
2022-08-08T22:57:43.880Z,-62
2022-08-08T23:00:18.246Z,-61
2022-08-08T23:02:50.162Z,-65
2022-08-08T23:05:21.384Z,-62
2022-08-08T23:07:57.264Z,-62
2022-08-08T23:10:28.009Z,-63
2022-08-08T23:12:56.647Z,-63
2022-08-08T23:16:37.967Z,-62
2022-08-08T23:18:13.888Z,-62
2022-08-08T23:20:43.486Z,-63
2022-08-08T23:23:13.203Z,-62
2022-08-08T23:25:48.001Z,-62
2022-08-08T23:28:18.918Z,-61
2022-08-08T23:30:48.031Z,-64
2022-08-08T23:33:21.031Z,-61
2022-08-08T23:36:08.884Z,-61
2022-08-08T23:38:41.590Z,-61
2022-08-08T23:41:23.177Z,-62
2022-08-08T23:43:56.476Z,-62
2022-08-08T23:49:04.768Z,-63
2022-08-08T23:49:18.736Z,-62
2022-08-08T23:52:06.034Z,-62
2022-08-08T23:54:42.970Z,-61
2022-08-08T23:57:38.717Z,-62
